createdAt,value
2022-10-05T00:01:31.819Z,5.78
2022-10-05T00:04:21.725Z,6.20
2022-10-05T00:07:00.252Z,7.50
2022-10-05T00:09:31.100Z,6.43
2022-10-05T00:11:58.039Z,6.50
2022-10-05T00:14:35.538Z,5.93
2022-10-05T00:17:05.165Z,5.72
2022-10-05T00:19:38.181Z,5.50
2022-10-05T00:22:15.758Z,5.50
2022-10-05T00:24:43.474Z,5.53
2022-10-05T00:27:31.270Z,5.63
2022-10-05T00:30:02.574Z,5.43
2022-10-05T00:32:30.018Z,5.03
2022-10-05T00:34:57.726Z,4.88
2022-10-05T00:37:24.779Z,6.45
2022-10-05T00:39:53.478Z,5.78
2022-10-05T00:42:26.293Z,5.63
2022-10-05T00:45:03.893Z,5.15
2022-10-05T00:47:50.967Z,4.55
2022-10-05T00:50:27.727Z,4.22
2022-10-05T00:53:22.766Z,4.20
2022-10-05T00:56:13.044Z,3.92
2022-10-05T00:59:01.623Z,5.07
2022-10-05T01:01:54.420Z,5.25
2022-10-05T01:07:07.898Z,4.53
2022-10-05T01:10:11.229Z,4.93
2022-10-05T01:12:50.314Z,4.55
2022-10-05T01:15:20.061Z,4.18
2022-10-05T01:18:22.683Z,4.72
2022-10-05T01:20:54.758Z,4.32
2022-10-05T01:23:40.604Z,3.70
2022-10-05T01:26:23.339Z,3.60
2022-10-05T01:29:05.243Z,3.78
2022-10-05T01:31:37.466Z,3.55
2022-10-05T01:37:08.844Z,3.00
2022-10-05T01:39:47.360Z,3.40
2022-10-05T01:42:48.073Z,3.72
2022-10-05T01:45:38.630Z,3.60
2022-10-05T01:49:02.588Z,3.90
2022-10-05T01:51:51.311Z,5.20
2022-10-05T01:54:36.796Z,4.82
2022-10-05T01:57:19.141Z,5.32
2022-10-05T02:00:09.033Z,3.85
2022-10-05T02:02:47.752Z,3.53
2022-10-05T02:05:22.346Z,4.25
2022-10-05T02:07:56.077Z,4.53
2022-10-05T02:10:30.359Z,4.50
2022-10-05T02:13:15.621Z,4.72
2022-10-05T02:15:46.264Z,5.18
2022-10-05T02:18:30.255Z,9.48
2022-10-05T02:21:02.993Z,10.13
2022-10-05T02:23:33.659Z,15.55
2022-10-05T02:26:01.509Z,12.93
2022-10-05T02:28:55.482Z,11.40
2022-10-05T02:31:50.459Z,9.75
2022-10-05T02:34:22.673Z,9.77
2022-10-05T02:37:10.319Z,6.57
2022-10-05T02:39:47.741Z,6.72
2022-10-05T02:42:32.951Z,8.00
2022-10-05T02:44:59.559Z,8.23
2022-10-05T02:47:43.259Z,9.38
2022-10-05T02:50:16.200Z,10.02
2022-10-05T02:53:12.754Z,9.65
2022-10-05T02:56:20.175Z,7.53
2022-10-05T02:58:50.224Z,5.20
2022-10-05T03:01:28.100Z,4.38
2022-10-05T03:04:11.663Z,4.18
2022-10-05T03:07:07.690Z,4.22
2022-10-05T03:09:41.382Z,3.60
2022-10-05T03:12:17.694Z,3.92
2022-10-05T03:15:09.583Z,3.33
2022-10-05T03:18:21.734Z,3.95
2022-10-05T03:20:57.642Z,5.23
2022-10-05T03:23:33.178Z,6.45
2022-10-05T03:26:09.001Z,5.63
2022-10-05T03:28:58.809Z,4.97
2022-10-05T03:31:46.105Z,3.35
2022-10-05T03:34:22.502Z,2.83
2022-10-05T03:37:31.585Z,2.70
2022-10-05T03:40:09.550Z,2.70
2022-10-05T03:42:39.843Z,2.90
2022-10-05T03:45:25.594Z,2.30
2022-10-05T03:48:01.832Z,2.92
2022-10-05T03:50:54.505Z,2.88
2022-10-05T03:53:38.548Z,3.60
2022-10-05T03:56:13.690Z,3.60
2022-10-05T03:59:03.009Z,3.38
2022-10-05T04:01:39.805Z,3.28
2022-10-05T04:04:13.736Z,3.70
2022-10-05T04:06:49.225Z,3.70
2022-10-05T04:09:39.521Z,3.47
2022-10-05T04:12:15.353Z,4.35
2022-10-05T04:14:48.471Z,4.53
2022-10-05T04:17:19.378Z,5.00
2022-10-05T04:20:02.238Z,4.25
2022-10-05T04:22:37.260Z,3.85
2022-10-05T04:25:19.031Z,4.00
2022-10-05T04:30:41.776Z,3.40
2022-10-05T04:33:11.652Z,3.65
2022-10-05T04:36:00.044Z,4.20
2022-10-05T04:39:05.309Z,4.72
2022-10-05T04:41:52.174Z,4.32
2022-10-05T04:44:48.251Z,3.97
2022-10-05T04:47:29.346Z,3.80
2022-10-05T04:50:34.233Z,3.50
2022-10-05T04:53:33.574Z,3.47
2022-10-05T04:56:07.056Z,3.25
2022-10-05T04:58:45.609Z,3.17
2022-10-05T05:01:35.872Z,3.78
2022-10-05T05:04:27.380Z,3.45
2022-10-05T05:07:15.252Z,3.35
2022-10-05T05:09:41.916Z,4.22
2022-10-05T05:12:43.727Z,3.88
2022-10-05T05:15:30.205Z,3.67
2022-10-05T05:18:12.763Z,4.15
2022-10-05T05:20:45.334Z,3.08
2022-10-05T05:23:44.472Z,3.30
2022-10-05T05:26:29.603Z,3.38
2022-10-05T05:29:33.896Z,3.35
2022-10-05T05:32:24.998Z,3.70
2022-10-05T05:34:57.982Z,4.80
2022-10-05T05:37:52.178Z,3.33
2022-10-05T05:40:35.200Z,3.58
2022-10-05T05:43:20.874Z,3.28
2022-10-05T05:46:34.015Z,3.38
2022-10-05T05:49:22.781Z,3.63
2022-10-05T05:52:16.103Z,3.25
2022-10-05T05:54:54.749Z,3.78
2022-10-05T05:57:38.772Z,4.10
2022-10-05T06:00:15.100Z,3.92
2022-10-05T06:03:15.050Z,3.90
2022-10-05T06:05:49.901Z,4.25
2022-10-05T06:08:29.123Z,4.47
2022-10-05T06:11:11.228Z,3.40
2022-10-05T06:13:42.592Z,3.60
2022-10-05T06:16:39.139Z,4.05
2022-10-05T06:19:13.953Z,3.80
2022-10-05T06:21:40.908Z,4.40
2022-10-05T06:24:31.820Z,4.47
2022-10-05T06:27:20.534Z,4.03
2022-10-05T06:30:04.634Z,3.70
2022-10-05T06:32:49.927Z,3.17
2022-10-05T06:35:17.780Z,3.50
2022-10-05T06:38:08.156Z,3.90
2022-10-05T06:40:59.466Z,3.72
2022-10-05T06:43:29.449Z,3.25
2022-10-05T06:46:29.128Z,3.35
2022-10-05T06:49:19.148Z,3.40
2022-10-05T06:52:16.279Z,3.30
2022-10-05T06:55:30.333Z,3.00
2022-10-05T06:58:18.636Z,3.67
2022-10-05T07:01:02.964Z,3.72
2022-10-05T07:03:49.530Z,5.85
2022-10-05T07:06:34.175Z,5.28
2022-10-05T07:09:37.530Z,6.20
2022-10-05T07:12:09.968Z,5.55
2022-10-05T07:14:48.659Z,5.78
2022-10-05T07:17:44.312Z,6.70
2022-10-05T07:20:17.377Z,7.43
2022-10-05T07:23:23.069Z,5.78
2022-10-05T07:26:01.900Z,4.18
2022-10-05T07:28:39.367Z,4.13
2022-10-05T07:31:31.648Z,4.45
2022-10-05T07:34:15.445Z,4.07
2022-10-05T07:37:09.793Z,4.13
2022-10-05T07:40:01.088Z,4.72
2022-10-05T07:43:08.898Z,4.18
2022-10-05T07:45:46.852Z,3.53
2022-10-05T07:48:33.209Z,3.65
2022-10-05T07:51:27.587Z,3.53
2022-10-05T07:54:13.629Z,3.13
2022-10-05T07:56:44.499Z,3.33
2022-10-05T07:59:22.337Z,3.10
2022-10-05T08:01:59.723Z,2.70
2022-10-05T08:04:55.895Z,2.80
2022-10-05T08:09:59.501Z,2.83
2022-10-05T08:13:07.671Z,3.30
2022-10-05T08:15:43.244Z,3.17
2022-10-05T08:18:39.743Z,3.20
2022-10-05T08:21:12.010Z,2.75
2022-10-05T08:23:55.273Z,3.00
2022-10-05T08:26:33.597Z,2.80
2022-10-05T08:29:19.021Z,3.58
2022-10-05T08:32:02.550Z,4.80
2022-10-05T08:34:47.869Z,3.95
2022-10-05T08:37:21.410Z,3.72
2022-10-05T08:39:52.649Z,3.40
2022-10-05T08:42:35.454Z,3.25
2022-10-05T08:45:20.929Z,3.75
2022-10-05T08:48:15.457Z,3.83
2022-10-05T08:51:03.885Z,3.85
2022-10-05T08:53:45.592Z,3.25
2022-10-05T08:56:42.458Z,4.00
2022-10-05T08:59:47.364Z,4.35
2022-10-05T09:02:38.990Z,4.00
2022-10-05T09:05:24.474Z,4.25
2022-10-05T09:08:03.629Z,4.13
2022-10-05T09:10:58.205Z,4.03
2022-10-05T09:13:39.607Z,3.63
2022-10-05T09:16:15.284Z,3.63
2022-10-05T09:19:02.197Z,3.90
2022-10-05T09:21:36.747Z,4.05
2022-10-05T09:24:12.549Z,3.70
2022-10-05T09:26:59.296Z,4.13
2022-10-05T09:29:31.888Z,3.83
2022-10-05T09:32:34.316Z,3.58
2022-10-05T09:35:09.985Z,3.75
2022-10-05T09:37:36.585Z,4.00
2022-10-05T09:40:27.957Z,4.90
2022-10-05T09:43:03.771Z,4.87
2022-10-05T09:45:35.806Z,5.20
2022-10-05T09:48:25.948Z,4.50
2022-10-05T09:51:10.822Z,5.28
2022-10-05T09:53:52.685Z,5.60
2022-10-05T09:56:40.934Z,5.65
2022-10-05T09:59:25.887Z,5.72
2022-10-05T10:02:16.400Z,5.57
2022-10-05T10:04:56.318Z,4.57
2022-10-05T10:07:53.968Z,4.70
2022-10-05T10:10:58.358Z,4.53
2022-10-05T10:14:00.861Z,4.82
2022-10-05T10:16:40.901Z,4.43
2022-10-05T10:19:35.655Z,4.75
2022-10-05T10:22:05.337Z,4.90
2022-10-05T10:24:53.763Z,5.10
2022-10-05T10:27:33.737Z,5.50
2022-10-05T10:30:09.429Z,5.10
2022-10-05T10:32:51.330Z,4.78
2022-10-05T10:38:42.312Z,4.80
2022-10-05T10:41:39.586Z,5.30
2022-10-05T10:44:27.761Z,5.22
2022-10-05T10:47:13.686Z,5.28
2022-10-05T10:50:30.317Z,4.68
2022-10-05T10:53:12.654Z,4.60
2022-10-05T10:56:07.545Z,3.85
2022-10-05T10:58:59.678Z,3.88
2022-10-05T11:01:54.997Z,3.55
2022-10-05T11:04:40.610Z,3.80
2022-10-05T11:07:22.466Z,3.70
2022-10-05T11:10:09.056Z,3.78
2022-10-05T11:12:51.629Z,4.78
2022-10-05T11:15:52.519Z,4.00
2022-10-05T11:18:41.137Z,3.30
2022-10-05T11:21:17.032Z,3.78
2022-10-05T11:24:13.086Z,2.90
2022-10-05T11:26:39.917Z,2.55
2022-10-05T11:29:06.485Z,3.17
2022-10-05T11:31:42.489Z,3.78
2022-10-05T11:34:40.905Z,2.80
2022-10-05T11:37:13.521Z,2.20
2022-10-05T11:40:02.896Z,2.65
2022-10-05T11:42:41.964Z,3.40
2022-10-05T11:45:23.996Z,2.50
2022-10-05T11:48:21.901Z,2.30
2022-10-05T11:51:17.469Z,2.03
2022-10-05T11:54:06.692Z,2.05
2022-10-05T11:56:57.307Z,2.17
2022-10-05T11:59:37.193Z,2.50
2022-10-05T12:02:43.101Z,1.90
2022-10-05T12:05:32.635Z,2.40
2022-10-05T12:08:35.969Z,2.10
2022-10-05T12:11:15.679Z,1.70
2022-10-05T12:13:48.424Z,2.13
2022-10-05T12:16:28.745Z,2.13
2022-10-05T12:19:09.082Z,1.98
2022-10-05T12:21:44.291Z,1.65
2022-10-05T12:24:30.184Z,1.80
2022-10-05T12:27:02.809Z,2.10
2022-10-05T12:29:35.378Z,1.80
2022-10-05T12:32:13.466Z,1.90
2022-10-05T12:35:03.290Z,1.90
2022-10-05T12:37:54.199Z,1.80
2022-10-05T12:40:31.978Z,1.73
2022-10-05T12:43:20.588Z,1.25
2022-10-05T12:46:03.511Z,1.67
2022-10-05T12:49:14.926Z,1.65
2022-10-05T12:51:48.099Z,1.63
2022-10-05T12:54:33.105Z,1.60
2022-10-05T12:57:18.878Z,1.60
2022-10-05T12:59:55.086Z,1.67
2022-10-05T13:02:32.592Z,1.58
2022-10-05T13:05:02.330Z,1.40
2022-10-05T13:07:35.205Z,1.40
2022-10-05T13:10:24.683Z,1.33
2022-10-05T13:13:16.205Z,1.40
2022-10-05T13:16:15.795Z,1.45
2022-10-05T13:19:07.604Z,1.50
2022-10-05T13:21:53.532Z,1.30
2022-10-05T13:24:59.498Z,1.30
2022-10-05T13:27:35.516Z,1.65
2022-10-05T13:30:05.821Z,1.50
2022-10-05T13:32:36.453Z,1.48
2022-10-05T13:35:13.462Z,1.30
2022-10-05T13:38:01.803Z,1.20
2022-10-05T13:40:45.120Z,1.55
2022-10-05T13:43:23.674Z,1.35
2022-10-05T13:45:52.766Z,1.30
2022-10-05T13:48:50.525Z,1.67
2022-10-05T13:51:24.568Z,1.48
2022-10-05T13:54:14.298Z,1.40
2022-10-05T13:56:46.151Z,1.30
2022-10-05T13:59:40.284Z,1.17
2022-10-05T14:02:21.038Z,1.30
2022-10-05T14:04:59.019Z,1.20
2022-10-05T14:07:34.223Z,1.85
2022-10-05T14:10:03.122Z,1.30
2022-10-05T14:12:39.722Z,1.20
2022-10-05T14:15:42.084Z,1.30
2022-10-05T14:18:24.316Z,1.48
2022-10-05T14:23:36.465Z,1.40
2022-10-05T14:26:04.434Z,1.30
2022-10-05T14:28:38.468Z,1.55
2022-10-05T14:31:26.607Z,1.27
2022-10-05T14:33:53.437Z,1.30
2022-10-05T14:36:36.277Z,1.45
2022-10-05T14:39:05.168Z,1.67
2022-10-05T14:41:37.626Z,1.40
2022-10-05T14:44:13.445Z,1.05
2022-10-05T14:46:53.254Z,1.08
2022-10-05T14:49:36.237Z,1.17
2022-10-05T14:52:28.828Z,1.33
2022-10-05T14:55:08.790Z,1.20
2022-10-05T14:58:09.206Z,1.58
2022-10-05T15:00:48.955Z,0.98
2022-10-05T15:03:31.874Z,1.30
2022-10-05T15:06:01.718Z,1.20
2022-10-05T15:08:45.261Z,1.20
2022-10-05T15:11:36.819Z,1.48
2022-10-05T15:14:14.673Z,1.30
2022-10-05T15:16:42.217Z,1.63
2022-10-05T15:20:05.195Z,1.10
2022-10-05T15:22:41.163Z,1.27
2022-10-05T15:25:22.262Z,1.70
2022-10-05T15:28:04.134Z,1.60
2022-10-05T15:33:35.546Z,2.45
2022-10-05T15:36:14.891Z,2.70
2022-10-05T15:38:44.758Z,2.92
2022-10-05T15:41:17.770Z,2.90
2022-10-05T15:43:47.206Z,1.70
2022-10-05T15:46:35.631Z,1.42
2022-10-05T15:49:11.598Z,1.08
2022-10-05T15:51:45.237Z,2.17
2022-10-05T15:54:40.058Z,1.33
2022-10-05T15:57:25.102Z,1.40
2022-10-05T16:00:02.122Z,1.40
2022-10-05T16:02:51.349Z,1.40
2022-10-05T16:05:57.874Z,1.20
2022-10-05T16:08:54.037Z,1.40
2022-10-05T16:11:33.340Z,1.38
2022-10-05T16:14:19.406Z,1.27
2022-10-05T16:17:10.828Z,1.48
2022-10-05T16:19:56.622Z,1.50
2022-10-05T16:22:37.853Z,1.48
2022-10-05T16:25:23.446Z,1.70
2022-10-05T16:28:22.902Z,1.80
2022-10-05T16:31:01.191Z,1.70
2022-10-05T16:33:56.637Z,1.58
2022-10-05T16:36:43.132Z,1.73
2022-10-05T16:39:20.532Z,1.63
2022-10-05T16:41:59.976Z,1.55
2022-10-05T16:44:48.048Z,1.73
2022-10-05T16:47:33.114Z,1.30
2022-10-05T16:50:17.877Z,1.30
2022-10-05T16:52:50.539Z,1.38
2022-10-05T16:55:38.830Z,1.38
2022-10-05T16:58:15.940Z,1.80
2022-10-05T17:01:02.129Z,1.60
2022-10-05T17:04:00.162Z,2.00
2022-10-05T17:06:30.179Z,1.50
2022-10-05T17:09:19.317Z,1.90
2022-10-05T17:12:20.794Z,1.92
2022-10-05T17:15:20.768Z,2.17
2022-10-05T17:18:16.664Z,2.42
2022-10-05T17:20:43.293Z,2.38
2022-10-05T17:23:31.289Z,2.20
2022-10-05T17:26:34.565Z,2.30
2022-10-05T17:29:15.565Z,2.33
2022-10-05T17:32:09.580Z,2.35
2022-10-05T17:34:56.893Z,2.35
2022-10-05T17:37:38.013Z,2.22
2022-10-05T17:40:30.752Z,2.33
2022-10-05T17:43:18.374Z,2.22
2022-10-05T17:45:45.049Z,2.00
2022-10-05T17:48:12.899Z,2.55
2022-10-05T17:51:01.182Z,2.97
2022-10-05T17:54:01.585Z,3.08
2022-10-05T17:56:29.659Z,2.70
2022-10-05T17:58:59.469Z,2.40
2022-10-05T18:01:30.298Z,2.80
2022-10-05T18:04:24.871Z,3.17
2022-10-05T18:07:15.267Z,2.75
2022-10-05T18:10:20.115Z,2.97
2022-10-05T18:12:51.214Z,3.10
2022-10-05T18:15:24.115Z,3.07
2022-10-05T18:17:56.113Z,2.90
2022-10-05T18:23:23.181Z,2.42
2022-10-05T18:26:01.405Z,2.17
2022-10-05T18:29:14.087Z,2.10
2022-10-05T18:31:51.348Z,2.15
2022-10-05T18:34:38.508Z,2.00
2022-10-05T18:37:21.586Z,2.17
2022-10-05T18:40:01.711Z,2.65
2022-10-05T18:42:28.381Z,2.38
2022-10-05T18:45:21.933Z,2.55
2022-10-05T18:48:07.420Z,2.50
2022-10-05T18:50:51.348Z,2.95
2022-10-05T18:53:30.140Z,2.42
2022-10-05T18:56:21.647Z,2.10
2022-10-05T18:59:00.866Z,2.70
2022-10-05T19:01:55.318Z,2.72
2022-10-05T19:04:43.757Z,3.38
2022-10-05T19:07:23.206Z,3.05
2022-10-05T19:09:57.678Z,2.67
2022-10-05T19:12:41.238Z,2.30
2022-10-05T19:15:17.305Z,2.60
2022-10-05T19:17:49.967Z,2.65
2022-10-05T19:20:19.472Z,2.75
2022-10-05T19:23:09.477Z,3.10
2022-10-05T19:26:11.922Z,2.90
2022-10-05T19:29:09.033Z,2.80
2022-10-05T19:31:44.506Z,2.55
2022-10-05T19:34:56.578Z,2.75
2022-10-05T19:37:42.405Z,3.22
2022-10-05T19:40:24.424Z,3.00
2022-10-05T19:43:15.591Z,2.95
2022-10-05T19:46:14.076Z,2.67
2022-10-05T19:48:48.584Z,3.00
2022-10-05T19:51:28.794Z,3.30
2022-10-05T19:54:02.480Z,2.88
2022-10-05T19:56:34.324Z,2.55
2022-10-05T19:59:17.476Z,2.90
2022-10-05T20:01:50.154Z,2.60
2022-10-05T20:04:32.099Z,3.10
2022-10-05T20:06:59.717Z,2.45
2022-10-05T20:09:26.404Z,2.70
2022-10-05T20:11:53.574Z,2.78
2022-10-05T20:14:29.306Z,3.33
2022-10-05T20:17:44.466Z,3.10
2022-10-05T20:20:45.750Z,2.30
2022-10-05T20:23:28.031Z,2.60
2022-10-05T20:26:13.323Z,2.50
2022-10-05T20:28:40.192Z,2.88
2022-10-05T20:31:08.041Z,2.55
2022-10-05T20:33:34.947Z,3.10
2022-10-05T20:36:03.713Z,3.40
2022-10-05T20:38:31.640Z,3.83
2022-10-05T20:40:58.640Z,3.33
2022-10-05T20:43:25.318Z,3.40
2022-10-05T20:45:52.331Z,2.75
2022-10-05T20:48:19.592Z,2.30
2022-10-05T20:50:47.339Z,2.42
2022-10-05T20:53:14.042Z,2.63
2022-10-05T20:55:40.749Z,2.38
2022-10-05T20:58:09.070Z,2.50
2022-10-05T21:00:54.614Z,2.30
2022-10-05T21:03:21.321Z,2.17
2022-10-05T21:05:48.025Z,2.58
2022-10-05T21:08:15.275Z,2.25
2022-10-05T21:10:41.949Z,2.45
2022-10-05T21:13:09.146Z,2.70
2022-10-05T21:15:35.837Z,3.00
2022-10-05T21:18:02.521Z,2.95
2022-10-05T21:20:29.166Z,2.70
2022-10-05T21:22:55.770Z,3.28
2022-10-05T21:25:22.591Z,2.50
2022-10-05T21:27:50.312Z,3.03
2022-10-05T21:30:17.184Z,3.10
2022-10-05T21:32:44.820Z,2.70
2022-10-05T21:35:11.666Z,2.63
2022-10-05T21:37:38.486Z,2.33
2022-10-05T21:40:05.590Z,2.40
2022-10-05T21:42:32.591Z,2.00
2022-10-05T21:44:59.338Z,2.25
2022-10-05T21:47:26.346Z,2.03
2022-10-05T21:49:54.015Z,2.20
2022-10-05T21:52:21.489Z,2.00
2022-10-05T21:54:48.212Z,2.30
2022-10-05T21:57:15.437Z,1.90
2022-10-05T21:59:42.641Z,1.98
2022-10-05T22:02:09.312Z,2.10
2022-10-05T22:04:35.982Z,2.05
2022-10-05T22:07:10.553Z,2.00
2022-10-05T22:09:37.193Z,2.13
2022-10-05T22:12:04.002Z,2.20
2022-10-05T22:14:31.497Z,2.15
2022-10-05T22:16:58.171Z,2.15
2022-10-05T22:19:24.830Z,2.22
2022-10-05T22:21:51.541Z,2.30
2022-10-05T22:24:18.179Z,2.50
2022-10-05T22:26:47.305Z,1.90
2022-10-05T22:29:15.955Z,1.80
2022-10-05T22:31:43.003Z,1.77
2022-10-05T22:34:09.741Z,2.00
2022-10-05T22:36:37.462Z,1.80
2022-10-05T22:39:04.454Z,1.80
2022-10-05T22:41:31.233Z,2.28
2022-10-05T22:43:57.890Z,2.28
2022-10-05T22:46:26.127Z,2.22
2022-10-05T22:48:52.816Z,2.42
2022-10-05T22:51:19.522Z,2.38
2022-10-05T22:53:46.180Z,2.00
2022-10-05T22:56:14.370Z,2.30
2022-10-05T22:58:42.369Z,2.20
2022-10-05T23:01:12.231Z,2.00
2022-10-05T23:03:39.551Z,2.15
2022-10-05T23:06:15.264Z,1.80
2022-10-05T23:08:43.124Z,2.10
2022-10-05T23:11:18.962Z,2.10
2022-10-05T23:13:45.660Z,2.10
2022-10-05T23:16:19.858Z,2.15
2022-10-05T23:18:52.621Z,2.10
2022-10-05T23:21:21.105Z,1.90
2022-10-05T23:23:51.782Z,2.10
2022-10-05T23:26:22.826Z,2.00
2022-10-05T23:28:50.289Z,1.90
2022-10-05T23:31:20.531Z,2.25
2022-10-05T23:33:47.493Z,2.35
2022-10-05T23:36:17.661Z,2.83
2022-10-05T23:38:44.831Z,2.05
2022-10-05T23:41:12.446Z,2.10
2022-10-05T23:43:40.442Z,1.90
2022-10-05T23:46:08.136Z,2.22
2022-10-05T23:48:38.164Z,2.13
2022-10-05T23:51:12.831Z,2.00
2022-10-05T23:53:40.308Z,2.08
2022-10-05T23:56:07.423Z,2.10
2022-10-05T23:58:34.728Z,2.17
